sensor_id;sensor_type;location;lat;lon;timestamp;pressure;altitude;pressure_sealevel;temperature;humidity
55610;BME280;41486;52.502;13.486;2024-03-08T00:00:14;101876.34;;;1.87;100.00
55610;BME280;41486;52.502;13.486;2024-03-08T00:02:47;101867.94;;;2.17;100.00
55610;BME280;41486;52.502;13.486;2024-03-08T00:05:18;101867.28;;;2.07;100.00
55610;BME280;41486;52.502;13.486;2024-03-08T00:07:46;101871.78;;;1.99;100.00
55610;BME280;41486;52.502;13.486;2024-03-08T00:10:14;101866.94;;;1.82;100.00
55610;BME280;41486;52.502;13.486;2024-03-08T00:12:44;101872.13;;;1.82;100.00
55610;BME280;41486;52.502;13.486;2024-03-08T00:15:14;101871.72;;;1.56;100.00
55610;BME280;41486;52.502;13.486;2024-03-08T00:17:44;101871.25;;;1.83;100.00
55610;BME280;41486;52.502;13.486;2024-03-08T00:20:15;101868.16;;;2.06;100.00
55610;BME280;41486;52.502;13.486;2024-03-08T00:22:46;101866.00;;;1.84;100.00
55610;BME280;41486;52.502;13.486;2024-03-08T00:25:14;101854.38;;;2.02;100.00
55610;BME280;41486;52.502;13.486;2024-03-08T00:27:42;101860.16;;;1.75;100.00
55610;BME280;41486;52.502;13.486;2024-03-08T00:30:11;101867.25;;;1.66;100.00
55610;BME280;41486;52.502;13.486;2024-03-08T00:32:40;101863.19;;;1.95;100.00
55610;BME280;41486;52.502;13.486;2024-03-08T00:35:09;101869.88;;;2.07;100.00
55610;BME280;41486;52.502;13.486;2024-03-08T00:37:41;101864.34;;;2.23;100.00
55610;BME280;41486;52.502;13.486;2024-03-08T00:40:10;101865.03;;;2.31;100.00
55610;BME280;41486;52.502;13.486;2024-03-08T00:42:38;101860.88;;;2.24;100.00
55610;BME280;41486;52.502;13.486;2024-03-08T00:45:08;101859.53;;;2.05;100.00
55610;BME280;41486;52.502;13.486;2024-03-08T00:47:37;101857.19;;;1.48;100.00
55610;BME280;41486;52.502;13.486;2024-03-08T00:50:06;101854.13;;;1.25;100.00
55610;BME280;41486;52.502;13.486;2024-03-08T00:52:35;101848.28;;;1.16;100.00
55610;BME280;41486;52.502;13.486;2024-03-08T00:55:05;101844.91;;;1.10;100.00
55610;BME280;41486;52.502;13.486;2024-03-08T00:57:34;101851.09;;;1.03;100.00
55610;BME280;41486;52.502;13.486;2024-03-08T01:00:03;101848.31;;;1.14;100.00
55610;BME280;41486;52.502;13.486;2024-03-08T01:02:33;101848.38;;;1.09;100.00
55610;BME280;41486;52.502;13.486;2024-03-08T01:05:03;101853.75;;;0.97;100.00
55610;BME280;41486;52.502;13.486;2024-03-08T01:07:33;101834.09;;;0.87;100.00
55610;BME280;41486;52.502;13.486;2024-03-08T01:10:02;101837.69;;;0.76;100.00
55610;BME280;41486;52.502;13.486;2024-03-08T01:12:31;101833.53;;;0.68;100.00
55610;BME280;41486;52.502;13.486;2024-03-08T01:14:59;101834.34;;;0.70;100.00
55610;BME280;41486;52.502;13.486;2024-03-08T01:17:28;101825.56;;;0.78;100.00
55610;BME280;41486;52.502;13.486;2024-03-08T01:19:56;101823.94;;;0.73;100.00
55610;BME280;41486;52.502;13.486;2024-03-08T01:22:25;101823.00;;;0.77;100.00
55610;BME280;41486;52.502;13.486;2024-03-08T01:24:54;101820.66;;;0.63;100.00
55610;BME280;41486;52.502;13.486;2024-03-08T01:27:22;101819.75;;;0.66;100.00
55610;BME280;41486;52.502;13.486;2024-03-08T01:29:52;101812.03;;;0.61;100.00
55610;BME280;41486;52.502;13.486;2024-03-08T01:32:20;101809.31;;;0.69;100.00
55610;BME280;41486;52.502;13.486;2024-03-08T01:34:49;101804.53;;;0.44;100.00
55610;BME280;41486;52.502;13.486;2024-03-08T01:37:17;101801.06;;;0.43;100.00
55610;BME280;41486;52.502;13.486;2024-03-08T01:39:46;101801.97;;;0.41;100.00
55610;BME280;41486;52.502;13.486;2024-03-08T01:42:14;101798.09;;;0.68;100.00
55610;BME280;41486;52.502;13.486;2024-03-08T01:44:44;101800.78;;;0.62;100.00
55610;BME280;41486;52.502;13.486;2024-03-08T01:47:13;101793.06;;;0.59;100.00
55610;BME280;41486;52.502;13.486;2024-03-08T01:49:42;101792.41;;;0.46;100.00
55610;BME280;41486;52.502;13.486;2024-03-08T01:52:10;101793.25;;;0.48;100.00
55610;BME280;41486;52.502;13.486;2024-03-08T01:54:39;101788.09;;;0.46;100.00
55610;BME280;41486;52.502;13.486;2024-03-08T01:57:08;101787.22;;;0.47;100.00
55610;BME280;41486;52.502;13.486;2024-03-08T01:59:36;101786.28;;;0.52;100.00
55610;BME280;41486;52.502;13.486;2024-03-08T02:02:05;101783.19;;;0.28;100.00
55610;BME280;41486;52.502;13.486;2024-03-08T02:04:36;101785.84;;;0.23;100.00
55610;BME280;41486;52.502;13.486;2024-03-08T02:07:05;101781.97;;;0.51;100.00
55610;BME280;41486;52.502;13.486;2024-03-08T02:09:37;101773.22;;;0.59;100.00
55610;BME280;41486;52.502;13.486;2024-03-08T02:12:06;101777.69;;;0.48;100.00
55610;BME280;41486;52.502;13.486;2024-03-08T02:14:37;101769.09;;;0.47;100.00
55610;BME280;41486;52.502;13.486;2024-03-08T02:17:07;101771.53;;;0.55;100.00
55610;BME280;41486;52.502;13.486;2024-03-08T02:19:37;101763.72;;;0.58;100.00
55610;BME280;41486;52.502;13.486;2024-03-08T02:22:06;101761.31;;;0.47;100.00
55610;BME280;41486;52.502;13.486;2024-03-08T02:24:35;101759.41;;;0.57;100.00
55610;BME280;41486;52.502;13.486;2024-03-08T02:27:04;101769.88;;;0.51;100.00
55610;BME280;41486;52.502;13.486;2024-03-08T02:29:33;101763.84;;;0.51;100.00
55610;BME280;41486;52.502;13.486;2024-03-08T02:32:02;101759.84;;;0.31;100.00
55610;BME280;41486;52.502;13.486;2024-03-08T02:34:31;101762.44;;;0.31;100.00
55610;BME280;41486;52.502;13.486;2024-03-08T02:36:59;101767.72;;;0.23;100.00
55610;BME280;41486;52.502;13.486;2024-03-08T02:39:28;101761.88;;;0.10;100.00
55610;BME280;41486;52.502;13.486;2024-03-08T02:41:58;101758.47;;;0.07;100.00
55610;BME280;41486;52.502;13.486;2024-03-08T02:44:26;101761.56;;;0.30;100.00
55610;BME280;41486;52.502;13.486;2024-03-08T02:46:54;101753.06;;;0.22;100.00
55610;BME280;41486;52.502;13.486;2024-03-08T02:49:22;101747.13;;;0.15;100.00
55610;BME280;41486;52.502;13.486;2024-03-08T02:51:50;101749.59;;;0.23;100.00
55610;BME280;41486;52.502;13.486;2024-03-08T02:54:18;101748.50;;;0.37;100.00
55610;BME280;41486;52.502;13.486;2024-03-08T02:56:48;101747.31;;;0.59;100.00
55610;BME280;41486;52.502;13.486;2024-03-08T02:59:18;101746.03;;;0.30;100.00
55610;BME280;41486;52.502;13.486;2024-03-08T03:01:46;101749.34;;;0.39;100.00
55610;BME280;41486;52.502;13.486;2024-03-08T03:04:14;101740.44;;;0.55;100.00
55610;BME280;41486;52.502;13.486;2024-03-08T03:06:41;101740.25;;;0.66;100.00
55610;BME280;41486;52.502;13.486;2024-03-08T03:09:09;101737.56;;;0.74;100.00
55610;BME280;41486;52.502;13.486;2024-03-08T03:11:38;101743.19;;;0.98;100.00
55610;BME280;41486;52.502;13.486;2024-03-08T03:14:08;101743.34;;;0.88;100.00
55610;BME280;41486;52.502;13.486;2024-03-08T03:16:36;101745.63;;;0.55;100.00
55610;BME280;41486;52.502;13.486;2024-03-08T03:19:03;101735.97;;;0.65;100.00
55610;BME280;41486;52.502;13.486;2024-03-08T03:21:32;101742.75;;;0.74;100.00
55610;BME280;41486;52.502;13.486;2024-03-08T03:24:03;101738.75;;;0.54;100.00
55610;BME280;41486;52.502;13.486;2024-03-08T03:26:37;101741.00;;;0.23;100.00
55610;BME280;41486;52.502;13.486;2024-03-08T03:29:09;101735.31;;;0.52;100.00
55610;BME280;41486;52.502;13.486;2024-03-08T03:31:37;101738.25;;;0.30;100.00
55610;BME280;41486;52.502;13.486;2024-03-08T03:34:06;101735.66;;;0.32;100.00
55610;BME280;41486;52.502;13.486;2024-03-08T03:36:35;101728.97;;;0.19;100.00
55610;BME280;41486;52.502;13.486;2024-03-08T03:39:05;101724.25;;;0.44;100.00
55610;BME280;41486;52.502;13.486;2024-03-08T03:41:37;101729.28;;;0.52;100.00
55610;BME280;41486;52.502;13.486;2024-03-08T03:44:05;101724.16;;;0.49;100.00
55610;BME280;41486;52.502;13.486;2024-03-08T03:46:35;101726.00;;;0.42;100.00
55610;BME280;41486;52.502;13.486;2024-03-08T03:49:03;101730.28;;;0.44;100.00
55610;BME280;41486;52.502;13.486;2024-03-08T03:51:31;101723.19;;;0.56;100.00
55610;BME280;41486;52.502;13.486;2024-03-08T03:53:59;101726.09;;;0.37;100.00
55610;BME280;41486;52.502;13.486;2024-03-08T03:56:30;101730.56;;;0.27;100.00
55610;BME280;41486;52.502;13.486;2024-03-08T03:58:58;101726.66;;;0.55;100.00
55610;BME280;41486;52.502;13.486;2024-03-08T04:01:26;101727.66;;;0.47;100.00
55610;BME280;41486;52.502;13.486;2024-03-08T04:03:55;101727.88;;;0.34;100.00
55610;BME280;41486;52.502;13.486;2024-03-08T04:06:23;101722.75;;;0.29;100.00
55610;BME280;41486;52.502;13.486;2024-03-08T04:08:51;101725.31;;;0.30;100.00
55610;BME280;41486;52.502;13.486;2024-03-08T04:11:19;101723.75;;;0.20;100.00
55610;BME280;41486;52.502;13.486;2024-03-08T04:13:48;101727.31;;;0.13;100.00
55610;BME280;41486;52.502;13.486;2024-03-08T04:16:16;101723.03;;;0.12;100.00
55610;BME280;41486;52.502;13.486;2024-03-08T04:18:45;101733.31;;;0.15;100.00
55610;BME280;41486;52.502;13.486;2024-03-08T04:21:17;101725.53;;;0.17;100.00
55610;BME280;41486;52.502;13.486;2024-03-08T04:23:46;101731.38;;;0.31;100.00
55610;BME280;41486;52.502;13.486;2024-03-08T04:26:14;101728.03;;;0.23;100.00
55610;BME280;41486;52.502;13.486;2024-03-08T04:28:45;101733.97;;;0.29;100.00
55610;BME280;41486;52.502;13.486;2024-03-08T04:31:13;101725.28;;;0.34;100.00
55610;BME280;41486;52.502;13.486;2024-03-08T04:33:42;101735.84;;;0.20;100.00
55610;BME280;41486;52.502;13.486;2024-03-08T04:36:11;101740.13;;;0.24;100.00
55610;BME280;41486;52.502;13.486;2024-03-08T04:38:41;101734.09;;;0.20;100.00
55610;BME280;41486;52.502;13.486;2024-03-08T04:41:10;101735.75;;;0.27;100.00
55610;BME280;41486;52.502;13.486;2024-03-08T04:43:38;101742.09;;;0.05;100.00
55610;BME280;41486;52.502;13.486;2024-03-08T04:46:06;101726.78;;;-0.09;100.00
55610;BME280;41486;52.502;13.486;2024-03-08T04:48:35;101733.34;;;0.13;100.00
55610;BME280;41486;52.502;13.486;2024-03-08T04:51:04;101733.34;;;0.13;100.00
55610;BME280;41486;52.502;13.486;2024-03-08T04:53:32;101719.19;;;-0.20;100.00
55610;BME280;41486;52.502;13.486;2024-03-08T04:56:02;101726.75;;;-0.08;100.00
55610;BME280;41486;52.502;13.486;2024-03-08T04:58:33;101724.44;;;-0.25;100.00
55610;BME280;41486;52.502;13.486;2024-03-08T05:01:01;101722.09;;;-0.45;100.00
55610;BME280;41486;52.502;13.486;2024-03-08T05:03:29;101716.88;;;-0.42;100.00
55610;BME280;41486;52.502;13.486;2024-03-08T05:05:57;101721.00;;;-0.27;100.00
55610;BME280;41486;52.502;13.486;2024-03-08T05:08:25;101720.13;;;-0.26;100.00
55610;BME280;41486;52.502;13.486;2024-03-08T05:10:53;101718.72;;;-0.52;100.00
55610;BME280;41486;52.502;13.486;2024-03-08T05:13:23;101713.50;;;-0.47;100.00
55610;BME280;41486;52.502;13.486;2024-03-08T05:15:51;101709.88;;;-0.34;100.00
55610;BME280;41486;52.502;13.486;2024-03-08T05:18:19;101712.69;;;-0.51;100.00
55610;BME280;41486;52.502;13.486;2024-03-08T05:20:48;101716.63;;;-0.23;100.00
55610;BME280;41486;52.502;13.486;2024-03-08T05:23:17;101708.41;;;-0.53;100.00
55610;BME280;41486;52.502;13.486;2024-03-08T05:25:47;101709.22;;;-0.51;100.00
55610;BME280;41486;52.502;13.486;2024-03-08T05:28:15;101709.53;;;-0.76;100.00
55610;BME280;41486;52.502;13.486;2024-03-08T05:30:45;101698.78;;;-0.42;100.00
55610;BME280;41486;52.502;13.486;2024-03-08T05:33:13;101712.63;;;-0.46;100.00
55610;BME280;41486;52.502;13.486;2024-03-08T05:35:41;101706.41;;;-0.33;100.00
55610;BME280;41486;52.502;13.486;2024-03-08T05:38:10;101698.97;;;-0.57;100.00
55610;BME280;41486;52.502;13.486;2024-03-08T05:40:39;101712.75;;;-0.55;100.00
55610;BME280;41486;52.502;13.486;2024-03-08T05:43:09;101700.06;;;-0.75;100.00
55610;BME280;41486;52.502;13.486;2024-03-08T05:45:38;101704.13;;;-0.56;100.00
55610;BME280;41486;52.502;13.486;2024-03-08T05:48:08;101703.38;;;-0.66;100.00
55610;BME280;41486;52.502;13.486;2024-03-08T05:50:37;101703.31;;;-0.59;100.00
55610;BME280;41486;52.502;13.486;2024-03-08T05:53:05;101704.97;;;-0.52;100.00
55610;BME280;41486;52.502;13.486;2024-03-08T05:55:33;101706.84;;;-0.67;100.00
55610;BME280;41486;52.502;13.486;2024-03-08T05:58:02;101709.22;;;-0.48;100.00
55610;BME280;41486;52.502;13.486;2024-03-08T06:00:30;101705.00;;;-0.55;100.00
55610;BME280;41486;52.502;13.486;2024-03-08T06:02:59;101709.28;;;-0.56;100.00
55610;BME280;41486;52.502;13.486;2024-03-08T06:05:28;101711.56;;;-0.29;100.00
55610;BME280;41486;52.502;13.486;2024-03-08T06:07:56;101708.78;;;-0.17;100.00
55610;BME280;41486;52.502;13.486;2024-03-08T06:10:25;101717.38;;;-0.15;100.00
55610;BME280;41486;52.502;13.486;2024-03-08T06:12:53;101712.28;;;-0.20;100.00
55610;BME280;41486;52.502;13.486;2024-03-08T06:15:21;101718.72;;;0.11;100.00
55610;BME280;41486;52.502;13.486;2024-03-08T06:17:49;101728.25;;;-0.52;100.00
55610;BME280;41486;52.502;13.486;2024-03-08T06:20:19;101722.41;;;-0.70;100.00
55610;BME280;41486;52.502;13.486;2024-03-08T06:22:54;101715.38;;;-0.57;100.00
55610;BME280;41486;52.502;13.486;2024-03-08T06:25:22;101720.59;;;-0.61;100.00
55610;BME280;41486;52.502;13.486;2024-03-08T06:27:52;101719.63;;;-0.54;100.00
55610;BME280;41486;52.502;13.486;2024-03-08T06:30:20;101725.72;;;-0.60;100.00
55610;BME280;41486;52.502;13.486;2024-03-08T06:32:49;101709.84;;;-0.32;100.00
55610;BME280;41486;52.502;13.486;2024-03-08T06:35:18;101722.47;;;-0.09;100.00
55610;BME280;41486;52.502;13.486;2024-03-08T06:37:46;101718.22;;;-0.13;100.00
55610;BME280;41486;52.502;13.486;2024-03-08T06:40:16;101716.16;;;0.11;100.00
55610;BME280;41486;52.502;13.486;2024-03-08T06:42:44;101706.25;;;-0.20;100.00
55610;BME280;41486;52.502;13.486;2024-03-08T06:45:12;101715.63;;;-0.14;100.00
55610;BME280;41486;52.502;13.486;2024-03-08T06:47:45;101713.06;;;-0.13;100.00
55610;BME280;41486;52.502;13.486;2024-03-08T06:50:14;101711.84;;;0.10;100.00
55610;BME280;41486;52.502;13.486;2024-03-08T06:52:42;101715.09;;;0.21;100.00
55610;BME280;41486;52.502;13.486;2024-03-08T06:55:11;101708.63;;;-0.05;100.00
55610;BME280;41486;52.502;13.486;2024-03-08T06:57:41;101706.69;;;0.07;100.00
55610;BME280;41486;52.502;13.486;2024-03-08T07:00:10;101708.13;;;0.25;100.00
55610;BME280;41486;52.502;13.486;2024-03-08T07:02:41;101709.84;;;0.26;100.00
55610;BME280;41486;52.502;13.486;2024-03-08T07:05:12;101714.03;;;0.35;100.00
55610;BME280;41486;52.502;13.486;2024-03-08T07:07:40;101709.63;;;0.40;100.00
55610;BME280;41486;52.502;13.486;2024-03-08T07:10:08;101716.09;;;0.66;100.00
55610;BME280;41486;52.502;13.486;2024-03-08T07:12:37;101708.50;;;0.56;100.00
55610;BME280;41486;52.502;13.486;2024-03-08T07:15:07;101706.94;;;0.46;100.00
55610;BME280;41486;52.502;13.486;2024-03-08T07:17:40;101711.94;;;0.57;100.00
55610;BME280;41486;52.502;13.486;2024-03-08T07:20:11;101707.78;;;0.48;100.00
55610;BME280;41486;52.502;13.486;2024-03-08T07:22:40;101704.78;;;0.70;100.00
55610;BME280;41486;52.502;13.486;2024-03-08T07:25:10;101713.19;;;0.83;100.00
55610;BME280;41486;52.502;13.486;2024-03-08T07:27:47;101701.91;;;0.87;100.00
55610;BME280;41486;52.502;13.486;2024-03-08T07:30:17;101710.22;;;1.03;100.00
55610;BME280;41486;52.502;13.486;2024-03-08T07:32:59;101702.16;;;1.18;100.00
55610;BME280;41486;52.502;13.486;2024-03-08T07:35:29;101701.56;;;1.04;100.00
55610;BME280;41486;52.502;13.486;2024-03-08T07:37:58;101698.72;;;1.18;100.00
55610;BME280;41486;52.502;13.486;2024-03-08T07:40:26;101698.63;;;1.22;100.00
55610;BME280;41486;52.502;13.486;2024-03-08T07:42:55;101696.56;;;1.38;100.00
55610;BME280;41486;52.502;13.486;2024-03-08T07:45:24;101698.22;;;1.41;100.00
55610;BME280;41486;52.502;13.486;2024-03-08T07:47:52;101689.13;;;1.64;100.00
55610;BME280;41486;52.502;13.486;2024-03-08T07:50:23;101695.06;;;1.69;100.00
55610;BME280;41486;52.502;13.486;2024-03-08T07:52:51;101691.47;;;1.75;100.00
55610;BME280;41486;52.502;13.486;2024-03-08T07:55:19;101696.31;;;1.88;100.00
55610;BME280;41486;52.502;13.486;2024-03-08T07:57:50;101690.28;;;1.88;100.00
55610;BME280;41486;52.502;13.486;2024-03-08T08:00:18;101685.34;;;2.13;100.00
55610;BME280;41486;52.502;13.486;2024-03-08T08:02:49;101673.97;;;2.19;100.00
55610;BME280;41486;52.502;13.486;2024-03-08T08:05:17;101672.56;;;2.05;100.00
55610;BME280;41486;52.502;13.486;2024-03-08T08:07:45;101674.97;;;2.15;100.00
55610;BME280;41486;52.502;13.486;2024-03-08T08:10:18;101681.66;;;2.24;100.00
55610;BME280;41486;52.502;13.486;2024-03-08T08:12:49;101674.59;;;2.29;100.00
55610;BME280;41486;52.502;13.486;2024-03-08T08:15:17;101681.16;;;2.44;100.00
55610;BME280;41486;52.502;13.486;2024-03-08T08:17:45;101676.72;;;2.47;100.00
55610;BME280;41486;52.502;13.486;2024-03-08T08:20:15;101672.66;;;2.70;100.00
55610;BME280;41486;52.502;13.486;2024-03-08T08:22:45;101675.16;;;2.75;100.00
55610;BME280;41486;52.502;13.486;2024-03-08T08:25:15;101680.59;;;2.65;100.00
55610;BME280;41486;52.502;13.486;2024-03-08T08:27:47;101676.00;;;2.75;100.00
55610;BME280;41486;52.502;13.486;2024-03-08T08:30:15;101667.03;;;2.86;100.00
55610;BME280;41486;52.502;13.486;2024-03-08T08:32:43;101665.78;;;3.00;100.00
55610;BME280;41486;52.502;13.486;2024-03-08T08:35:15;101673.91;;;3.20;100.00
55610;BME280;41486;52.502;13.486;2024-03-08T08:37:45;101667.63;;;3.27;100.00
55610;BME280;41486;52.502;13.486;2024-03-08T08:40:14;101669.97;;;3.36;100.00
55610;BME280;41486;52.502;13.486;2024-03-08T08:42:44;101662.03;;;3.41;100.00
55610;BME280;41486;52.502;13.486;2024-03-08T08:45:16;101659.97;;;3.51;100.00
55610;BME280;41486;52.502;13.486;2024-03-08T08:47:51;101657.25;;;3.55;100.00
55610;BME280;41486;52.502;13.486;2024-03-08T08:50:21;101659.72;;;3.60;100.00
55610;BME280;41486;52.502;13.486;2024-03-08T08:52:51;101657.84;;;3.63;100.00
55610;BME280;41486;52.502;13.486;2024-03-08T08:55:20;101639.81;;;3.86;100.00
55610;BME280;41486;52.502;13.486;2024-03-08T08:57:53;101648.59;;;3.83;100.00
55610;BME280;41486;52.502;13.486;2024-03-08T09:00:22;101641.31;;;3.93;100.00
55610;BME280;41486;52.502;13.486;2024-03-08T09:02:54;101643.34;;;4.10;100.00
55610;BME280;41486;52.502;13.486;2024-03-08T09:05:26;101638.88;;;4.15;100.00
55610;BME280;41486;52.502;13.486;2024-03-08T09:07:55;101634.28;;;4.22;100.00
55610;BME280;41486;52.502;13.486;2024-03-08T09:10:24;101634.03;;;4.30;98.60
55610;BME280;41486;52.502;13.486;2024-03-08T09:12:55;101633.59;;;4.42;98.12
55610;BME280;41486;52.502;13.486;2024-03-08T09:15:23;101627.31;;;4.48;95.67
55610;BME280;41486;52.502;13.486;2024-03-08T09:17:56;101629.53;;;4.60;95.26
55610;BME280;41486;52.502;13.486;2024-03-08T09:20:25;101625.56;;;4.73;94.08
55610;BME280;41486;52.502;13.486;2024-03-08T09:22:53;101621.47;;;4.66;90.64
55610;BME280;41486;52.502;13.486;2024-03-08T09:25:23;101621.00;;;4.79;89.01
55610;BME280;41486;52.502;13.486;2024-03-08T09:27:52;101629.16;;;4.69;90.68
55610;BME280;41486;52.502;13.486;2024-03-08T09:30:21;101620.75;;;4.61;87.46
55610;BME280;41486;52.502;13.486;2024-03-08T09:32:49;101619.03;;;4.85;90.07
55610;BME280;41486;52.502;13.486;2024-03-08T09:35:18;101612.41;;;5.00;86.64
55610;BME280;41486;52.502;13.486;2024-03-08T09:37:48;101614.06;;;5.03;84.62
55610;BME280;41486;52.502;13.486;2024-03-08T09:40:18;101601.06;;;5.01;84.14
55610;BME280;41486;52.502;13.486;2024-03-08T09:42:48;101599.31;;;5.02;82.70
55610;BME280;41486;52.502;13.486;2024-03-08T09:45:16;101596.81;;;4.99;85.61
55610;BME280;41486;52.502;13.486;2024-03-08T09:47:45;101602.00;;;5.22;82.92
55610;BME280;41486;52.502;13.486;2024-03-08T09:50:13;101602.28;;;5.39;81.85
55610;BME280;41486;52.502;13.486;2024-03-08T09:52:42;101602.38;;;5.35;79.21
55610;BME280;41486;52.502;13.486;2024-03-08T09:55:12;101596.69;;;5.48;79.05
55610;BME280;41486;52.502;13.486;2024-03-08T09:57:43;101604.28;;;5.54;76.53
55610;BME280;41486;52.502;13.486;2024-03-08T10:00:32;101590.31;;;5.33;75.29
55610;BME280;41486;52.502;13.486;2024-03-08T10:03:01;101591.38;;;5.72;75.03
55610;BME280;41486;52.502;13.486;2024-03-08T10:05:30;101588.53;;;5.78;74.17
55610;BME280;41486;52.502;13.486;2024-03-08T10:07:59;101575.28;;;5.82;72.65
55610;BME280;41486;52.502;13.486;2024-03-08T10:10:28;101575.91;;;5.67;71.80
55610;BME280;41486;52.502;13.486;2024-03-08T10:12:57;101576.00;;;5.86;71.56
55610;BME280;41486;52.502;13.486;2024-03-08T10:15:27;101579.81;;;5.99;70.73
55610;BME280;41486;52.502;13.486;2024-03-08T10:17:55;101582.16;;;5.63;70.04
55610;BME280;41486;52.502;13.486;2024-03-08T10:20:24;101575.13;;;6.08;70.03
55610;BME280;41486;52.502;13.486;2024-03-08T10:22:53;101574.75;;;5.74;70.34
55610;BME280;41486;52.502;13.486;2024-03-08T10:25:37;101567.28;;;5.85;69.62
55610;BME280;41486;52.502;13.486;2024-03-08T10:28:05;101567.63;;;6.00;69.39
55610;BME280;41486;52.502;13.486;2024-03-08T10:30:34;101558.34;;;5.91;68.88
55610;BME280;41486;52.502;13.486;2024-03-08T10:33:02;101556.03;;;6.26;68.51
55610;BME280;41486;52.502;13.486;2024-03-08T10:35:33;101554.66;;;6.38;65.33
55610;BME280;41486;52.502;13.486;2024-03-08T10:38:02;101547.00;;;6.34;63.72
55610;BME280;41486;52.502;13.486;2024-03-08T10:40:35;101555.38;;;6.42;62.79
55610;BME280;41486;52.502;13.486;2024-03-08T10:43:04;101541.50;;;6.40;61.94
55610;BME280;41486;52.502;13.486;2024-03-08T10:45:35;101550.78;;;6.66;61.08
55610;BME280;41486;52.502;13.486;2024-03-08T10:48:10;101538.91;;;6.78;61.26
55610;BME280;41486;52.502;13.486;2024-03-08T10:50:43;101544.09;;;6.99;59.79
55610;BME280;41486;52.502;13.486;2024-03-08T10:53:13;101539.75;;;6.98;58.59
55610;BME280;41486;52.502;13.486;2024-03-08T10:55:42;101528.84;;;7.26;58.71
55610;BME280;41486;52.502;13.486;2024-03-08T10:58:13;101530.41;;;7.11;59.10
55610;BME280;41486;52.502;13.486;2024-03-08T11:00:42;101524.25;;;7.12;57.83
55610;BME280;41486;52.502;13.486;2024-03-08T11:03:43;101528.06;;;7.24;58.07
55610;BME280;41486;52.502;13.486;2024-03-08T11:06:15;101524.47;;;7.07;58.18
55610;BME280;41486;52.502;13.486;2024-03-08T11:08:44;101512.59;;;7.00;57.37
55610;BME280;41486;52.502;13.486;2024-03-08T11:11:30;101509.66;;;7.43;56.66
55610;BME280;41486;52.502;13.486;2024-03-08T11:14:02;101508.38;;;7.69;56.72
55610;BME280;41486;52.502;13.486;2024-03-08T11:16:41;101499.72;;;7.32;56.83
55610;BME280;41486;52.502;13.486;2024-03-08T11:19:25;101484.34;;;7.44;55.67
55610;BME280;41486;52.502;13.486;2024-03-08T11:21:59;101494.75;;;7.80;55.04
55610;BME280;41486;52.502;13.486;2024-03-08T11:24:28;101484.88;;;7.85;54.32
55610;BME280;41486;52.502;13.486;2024-03-08T11:26:57;101482.69;;;8.27;56.53
55610;BME280;41486;52.502;13.486;2024-03-08T11:29:36;101483.25;;;8.16;53.01
55610;BME280;41486;52.502;13.486;2024-03-08T11:32:10;101484.97;;;8.33;53.30
55610;BME280;41486;52.502;13.486;2024-03-08T11:34:41;101477.59;;;7.90;53.08
55610;BME280;41486;52.502;13.486;2024-03-08T11:37:12;101465.72;;;8.01;53.66
55610;BME280;41486;52.502;13.486;2024-03-08T11:39:46;101474.97;;;8.58;52.96
55610;BME280;41486;52.502;13.486;2024-03-08T11:42:15;101470.41;;;8.61;52.16
55610;BME280;41486;52.502;13.486;2024-03-08T11:44:45;101471.84;;;8.67;51.95
55610;BME280;41486;52.502;13.486;2024-03-08T11:47:15;101458.47;;;8.88;52.14
55610;BME280;41486;52.502;13.486;2024-03-08T11:49:44;101464.16;;;8.80;53.06
55610;BME280;41486;52.502;13.486;2024-03-08T11:52:15;101466.75;;;9.12;51.10
55610;BME280;41486;52.502;13.486;2024-03-08T11:54:51;101456.16;;;9.13;50.67
55610;BME280;41486;52.502;13.486;2024-03-08T11:57:22;101450.13;;;9.11;51.04
55610;BME280;41486;52.502;13.486;2024-03-08T11:59:52;101455.22;;;9.14;50.58
55610;BME280;41486;52.502;13.486;2024-03-08T12:02:23;101460.09;;;9.21;51.15
55610;BME280;41486;52.502;13.486;2024-03-08T12:04:56;101451.63;;;9.46;50.52
55610;BME280;41486;52.502;13.486;2024-03-08T12:07:26;101453.44;;;9.45;50.08
55610;BME280;41486;52.502;13.486;2024-03-08T12:10:15;101447.72;;;8.92;50.64
55610;BME280;41486;52.502;13.486;2024-03-08T12:12:46;101448.56;;;9.23;51.55
55610;BME280;41486;52.502;13.486;2024-03-08T12:15:16;101443.72;;;9.31;50.92
55610;BME280;41486;52.502;13.486;2024-03-08T12:17:45;101441.31;;;8.66;50.46
55610;BME280;41486;52.502;13.486;2024-03-08T12:20:16;101441.59;;;9.38;51.02
55610;BME280;41486;52.502;13.486;2024-03-08T12:22:44;101430.22;;;9.38;49.91
55610;BME280;41486;52.502;13.486;2024-03-08T12:25:13;101433.75;;;9.67;49.29
55610;BME280;41486;52.502;13.486;2024-03-08T12:27:42;101429.81;;;11.67;45.73
55610;BME280;41486;52.502;13.486;2024-03-08T12:30:20;101430.66;;;12.81;42.44
55610;BME280;41486;52.502;13.486;2024-03-08T12:32:51;101428.34;;;13.72;39.38
55610;BME280;41486;52.502;13.486;2024-03-08T12:35:21;101426.75;;;14.26;39.33
55610;BME280;41486;52.502;13.486;2024-03-08T12:37:52;101427.75;;;13.68;39.57
55610;BME280;41486;52.502;13.486;2024-03-08T12:40:25;101423.66;;;15.93;36.41
55610;BME280;41486;52.502;13.486;2024-03-08T12:42:55;101421.94;;;15.40;35.14
55610;BME280;41486;52.502;13.486;2024-03-08T12:45:26;101415.47;;;14.24;37.80
55610;BME280;41486;52.502;13.486;2024-03-08T12:47:55;101411.31;;;13.40;39.53
55610;BME280;41486;52.502;13.486;2024-03-08T12:50:23;101399.50;;;15.75;35.86
55610;BME280;41486;52.502;13.486;2024-03-08T12:52:52;101389.34;;;13.51;38.45